»·PEaware :: VRD947 KLAX-KSFO

VRD947 :: KLAX-KSFO

FLIGHT INFORMATION

Flight Status: Arrived
Operator:
Virgin America
More flights by this operator :: More flights under this callsign
Pilot: Ryan W. (19155)
Aircraft: AIRBUS A320
(A320)
More flights by this aircraft type
Origin: KLAX Los Angeles Intl
United States
Destination: KSFO San Francisco Intl
United States
More flights between these airports :: More routes between these airports
Route: SUMMR1 STOKD SERFR SERFR3
File this flight plan on PilotEdge
Remarks:
Altitude:
(Current/Filed)
38,000ft
Speed:
(Current/Filed)
447kts
Departed: 14-May-18 07:01 PM
Arrived: 14-May-18 07:55 PM
Distance/Time
Traveled:
293nm/0:54
Distance/Time
To Go:
Arrived

Flight Plot

Page will automatically refresh every two minutes.

Flight plan parsing failed; only flown route is shown


Map Options




Map Legend


Flown Route
Filed Route
Departure Airport
Arrival Airport
Navaid (VOR, NDB)
Fix

Horizontal Profiles

Position Reports

Time Latitude Longitude Heading Altitude Ground
Speed
14-May-18 18:44 33.947184 -118.406600 217 134ft 0kts
14-May-18 18:45 33.947184 -118.406600 217 134ft 0kts
14-May-18 18:46 33.947184 -118.406600 217 134ft 0kts
14-May-18 18:47 33.947184 -118.406600 217 134ft 0kts
14-May-18 18:48 33.947184 -118.406600 217 134ft 0kts
14-May-18 18:49 33.947184 -118.406600 217 134ft 0kts
14-May-18 18:50 33.947184 -118.406600 217 134ft 0kts
14-May-18 18:51 33.947184 -118.406600 217 134ft 0kts
14-May-18 18:52 33.947184 -118.406600 217 134ft 0kts
14-May-18 18:53 33.947604 -118.406341 159 134ft 2kts
14-May-18 18:54 33.947748 -118.406707 84 134ft 1kts
14-May-18 18:55 33.947736 -118.406855 84 134ft 0kts
14-May-18 18:56 33.947736 -118.406855 84 134ft 0kts
14-May-18 18:57 33.947817 -118.405969 83 134ft 7kts
14-May-18 18:58 33.948288 -118.402953 31 134ft 8kts
14-May-18 18:59 33.949178 -118.401731 9 134ft 0kts
14-May-18 19:00 33.949231 -118.401720 6 134ft 2kts
14-May-18 19:01 33.949618 -118.407315 263 134ft 103kts
14-May-18 19:02 33.943262 -118.464406 262 2496ft 219kts
14-May-18 19:03 33.938785 -118.545565 265 4984ft 253kts
14-May-18 19:04 33.932535 -118.630544 264 5023ft 258kts
14-May-18 19:05 33.926103 -118.714766 263 6183ft 265kts
14-May-18 19:06 33.919075 -118.805449 264 9899ft 286kts
14-May-18 19:07 33.939658 -118.899269 313 12827ft 326kts
14-May-18 19:08 34.004230 -118.977613 312 16007ft 339kts
14-May-18 19:09 34.071359 -119.059144 312 18783ft 352kts
14-May-18 19:10 34.140411 -119.143083 311 21162ft 366kts
14-May-18 19:11 34.212317 -119.230688 311 23325ft 378kts
14-May-18 19:12 34.287072 -119.321999 311 25268ft 390kts
14-May-18 19:13 34.364054 -119.416287 312 27067ft 400kts
14-May-18 19:14 34.442691 -119.512855 312 28652ft 411kts
14-May-18 19:15 34.523380 -119.612239 312 30118ft 420kts
14-May-18 19:16 34.605584 -119.713801 312 31418ft 429kts
14-May-18 19:17 34.689367 -119.817636 311 32589ft 436kts
14-May-18 19:18 34.774483 -119.923437 312 33787ft 439kts
14-May-18 19:19 34.858840 -120.028647 311 35082ft 436kts
14-May-18 19:20 34.942994 -120.133911 311 36251ft 433kts
14-May-18 19:21 35.026892 -120.239183 310 37193ft 434kts
14-May-18 19:22 35.109686 -120.343391 310 37976ft 435kts
14-May-18 19:23 35.193636 -120.449389 310 38122ft 435kts
14-May-18 19:24 35.277773 -120.555962 311 38123ft 436kts
14-May-18 19:25 35.361358 -120.662179 312 38120ft 436kts
14-May-18 19:26 35.445358 -120.769243 312 38061ft 438kts
14-May-18 19:27 35.536671 -120.867475 321 38078ft 441kts
14-May-18 19:28 35.634230 -120.958095 321 38076ft 441kts
14-May-18 19:29 35.731634 -121.048839 321 38071ft 441kts
14-May-18 19:30 35.828992 -121.139815 321 37870ft 440kts
14-May-18 19:31 35.925157 -121.229969 322 36548ft 434kts
14-May-18 19:32 36.021412 -121.320466 323 33878ft 438kts
14-May-18 19:33 36.118938 -121.404049 328 31517ft 433kts
14-May-18 19:34 36.216882 -121.480589 328 29516ft 419kts
14-May-18 19:35 36.313549 -121.556294 328 27480ft 405kts
14-May-18 19:36 36.406797 -121.629518 328 25456ft 390kts
14-May-18 19:37 36.496249 -121.699959 327 23465ft 377kts
14-May-18 19:38 36.582955 -121.768478 326 21621ft 367kts
14-May-18 19:39 36.669527 -121.837051 326 19871ft 367kts
14-May-18 19:40 36.756874 -121.898538 346 17791ft 361kts
14-May-18 19:41 36.853575 -121.925461 347 15738ft 353kts
14-May-18 19:42 36.947769 -121.951988 346 13724ft 344kts
14-May-18 19:43 37.037769 -121.986595 343 11649ft 337kts
14-May-18 19:44 37.122952 -122.019871 343 10230ft 312kts
14-May-18 19:45 37.200328 -122.050221 345 9431ft 279kts
14-May-18 19:46 37.272072 -122.078319 344 8293ft 265kts
14-May-18 19:47 37.340904 -122.105397 343 7071ft 256kts
14-May-18 19:48 37.407794 -122.130353 344 5447ft 245kts
14-May-18 19:49 37.469579 -122.151381 344 4044ft 228kts
14-May-18 19:50 37.529187 -122.172589 331 3239ft 213kts
14-May-18 19:51 37.559077 -122.235502 300 1982ft 210kts
14-May-18 19:52 37.582232 -122.289243 291 1232ft 136kts
14-May-18 19:53 37.598860 -122.328552 296 570ft 125kts
14-May-18 19:54 37.614699 -122.365464 297 23ft 101kts
14-May-18 19:55 37.619913 -122.378921 238 22ft 13kts
14-May-18 19:56 37.618044 -122.379571 158 22ft 10kts
14-May-18 19:57 37.616757 -122.380554 300 22ft 2kts
14-May-18 19:58 37.616766 -122.380573 299 22ft 0kts
14-May-18 19:59 37.616766 -122.380573 300 22ft 0kts

Navigation Log

Ident Type
Flight plan parsing failed, navigation log unavailable